Terminal Aerodrome Forecast
Issued by NWS

Home | Current Version | Previous Version | Text Only | Print | Product List | Glossary On
Versions: 1 2 3 4 5 6 7 8 9 10 11 12 13 14 15 16 17 18 19 20 21 22 23 24 25 26 27 28 29
000
FTUS43 KDVN 212320
TAFCID
TAF
KCID 212320Z 2200/2224 31005KT 6SM BR OVC012
     FM220200 VRB03KT 5SM BR SCT015 BKN025
     FM220400 33005KT 4SM BR SCT015
     FM220900 33005KT 2SM BR BKN020
     FM221400 33004KT P6SM SCT030=

USA.gov is the U.S. government's official web portal to all federal, state and local government web resources and services.